createdAt,value
2022-10-07T00:01:13.146Z,12.60
2022-10-07T00:03:42.987Z,12.60
2022-10-07T00:06:14.477Z,12.60
2022-10-07T00:08:45.612Z,12.60
2022-10-07T00:11:16.333Z,12.50
2022-10-07T00:13:47.262Z,12.60
2022-10-07T00:16:17.640Z,12.50
2022-10-07T00:18:48.340Z,12.50
2022-10-07T00:21:18.677Z,12.50
2022-10-07T00:23:48.938Z,12.50
2022-10-07T00:26:20.123Z,12.50
2022-10-07T00:28:50.060Z,12.50
2022-10-07T00:31:21.679Z,12.50
2022-10-07T00:33:52.282Z,12.50
2022-10-07T00:36:23.855Z,12.40
2022-10-07T00:38:56.075Z,12.40
2022-10-07T00:41:26.893Z,12.40
2022-10-07T00:43:55.705Z,12.50
2022-10-07T00:46:30.135Z,12.50
2022-10-07T00:49:03.982Z,12.40
2022-10-07T00:51:34.409Z,12.50
2022-10-07T00:54:06.083Z,12.40
2022-10-07T00:56:35.437Z,12.40
2022-10-07T00:59:05.627Z,12.50
2022-10-07T01:01:35.107Z,12.50
2022-10-07T01:04:05.813Z,12.50
2022-10-07T01:06:34.754Z,12.50
2022-10-07T01:09:03.083Z,12.50
2022-10-07T01:11:41.589Z,12.40
2022-10-07T01:14:18.295Z,12.40
2022-10-07T01:17:00.415Z,12.50
2022-10-07T01:19:56.223Z,12.40
2022-10-07T01:22:34.183Z,12.40
2022-10-07T01:25:28.090Z,12.40
2022-10-07T01:28:02.180Z,12.30
2022-10-07T01:30:34.463Z,12.30
2022-10-07T01:33:07.715Z,12.20
2022-10-07T01:35:37.697Z,12.20
2022-10-07T01:38:12.176Z,12.20
2022-10-07T01:40:45.873Z,12.20
2022-10-07T01:43:17.088Z,12.20
2022-10-07T01:45:45.594Z,12.20
2022-10-07T01:48:13.947Z,12.10
2022-10-07T01:50:42.928Z,12.10
2022-10-07T01:53:22.506Z,12.00
2022-10-07T01:56:12.889Z,12.10
2022-10-07T01:59:05.549Z,12.00
2022-10-07T02:01:47.107Z,12.00
2022-10-07T02:04:31.464Z,11.90
2022-10-07T02:07:09.975Z,11.90
2022-10-07T02:09:46.053Z,11.90
2022-10-07T02:12:22.864Z,11.80
2022-10-07T02:14:57.193Z,11.80
2022-10-07T02:17:29.088Z,11.70
2022-10-07T02:19:58.135Z,11.60
2022-10-07T02:22:30.085Z,11.60
2022-10-07T02:25:00.537Z,11.50
2022-10-07T02:27:34.926Z,11.50
2022-10-07T02:30:08.716Z,11.50
2022-10-07T02:32:39.905Z,11.50
2022-10-07T02:35:17.185Z,11.40
2022-10-07T02:37:48.575Z,11.40
2022-10-07T02:40:17.407Z,11.40
2022-10-07T02:42:54.692Z,11.40
2022-10-07T02:45:32.715Z,11.40
2022-10-07T02:48:04.879Z,11.40
2022-10-07T02:50:41.182Z,11.30
2022-10-07T02:53:13.676Z,11.30
2022-10-07T02:55:43.702Z,11.30
2022-10-07T02:58:14.074Z,11.30
2022-10-07T03:00:53.031Z,11.30
2022-10-07T03:03:22.874Z,11.30
2022-10-07T03:05:58.767Z,11.30
2022-10-07T03:08:28.565Z,11.30
2022-10-07T03:10:58.055Z,11.30
2022-10-07T03:13:26.944Z,11.30
2022-10-07T03:16:01.289Z,11.30
2022-10-07T03:18:31.117Z,11.30
2022-10-07T03:21:22.729Z,11.30
2022-10-07T03:23:54.734Z,11.30
2022-10-07T03:26:26.757Z,11.40
2022-10-07T03:28:55.583Z,11.40
2022-10-07T03:31:27.731Z,11.40
2022-10-07T03:33:59.703Z,11.40
2022-10-07T03:36:28.688Z,11.40
2022-10-07T03:38:58.218Z,11.50
2022-10-07T03:41:27.403Z,11.40
2022-10-07T03:43:59.348Z,11.40
2022-10-07T03:46:30.628Z,11.40
2022-10-07T03:48:59.488Z,11.40
2022-10-07T03:51:29.524Z,11.40
2022-10-07T03:53:59.168Z,11.40
2022-10-07T03:56:31.949Z,11.40
2022-10-07T03:59:01.903Z,11.40
2022-10-07T04:01:32.950Z,11.40
2022-10-07T04:04:02.384Z,11.40
2022-10-07T04:06:35.417Z,11.40
2022-10-07T04:09:07.706Z,11.40
2022-10-07T04:11:40.452Z,11.40
2022-10-07T04:14:09.508Z,11.40
2022-10-07T04:16:40.736Z,11.40
2022-10-07T04:19:11.731Z,11.40
2022-10-07T04:21:40.069Z,11.40
2022-10-07T04:24:08.704Z,11.50
2022-10-07T04:26:38.407Z,11.50
2022-10-07T04:29:06.738Z,11.50
2022-10-07T04:31:35.424Z,11.60
2022-10-07T04:34:08.571Z,11.60
2022-10-07T04:36:40.876Z,11.60
2022-10-07T04:39:15.035Z,11.60
2022-10-07T04:41:54.818Z,11.70
2022-10-07T04:44:27.754Z,11.70
2022-10-07T04:47:07.848Z,11.70
2022-10-07T04:49:40.625Z,11.70
2022-10-07T04:52:10.842Z,11.70
2022-10-07T04:54:41.646Z,11.70
2022-10-07T04:57:13.573Z,11.70
2022-10-07T04:59:43.484Z,11.60
2022-10-07T05:02:15.848Z,11.70
2022-10-07T05:04:47.186Z,11.70
2022-10-07T05:07:18.407Z,11.70
2022-10-07T05:09:47.012Z,11.70
2022-10-07T05:12:17.753Z,11.70
2022-10-07T05:14:47.164Z,11.70
2022-10-07T05:17:16.837Z,11.80
2022-10-07T05:19:46.836Z,11.80
2022-10-07T05:22:15.179Z,11.90
2022-10-07T05:24:43.607Z,12.00
2022-10-07T05:27:14.193Z,12.20
2022-10-07T05:29:42.794Z,12.40
2022-10-07T05:32:11.190Z,12.60
2022-10-07T05:34:39.615Z,12.90
2022-10-07T05:37:09.493Z,13.20
2022-10-07T05:39:37.894Z,13.50
2022-10-07T05:42:13.754Z,13.80
2022-10-07T05:44:49.269Z,14.30
2022-10-07T05:47:18.915Z,14.70
2022-10-07T05:49:47.387Z,15.10
2022-10-07T05:52:19.352Z,15.50
2022-10-07T05:54:47.804Z,15.90
2022-10-07T05:57:17.024Z,16.30
2022-10-07T05:59:46.007Z,16.60
2022-10-07T06:02:17.286Z,17.00
2022-10-07T06:04:48.824Z,17.30
2022-10-07T06:07:22.018Z,17.60
2022-10-07T06:10:10.865Z,18.00
2022-10-07T06:12:57.147Z,18.30
2022-10-07T06:15:25.778Z,18.70
2022-10-07T06:17:54.465Z,19.10
2022-10-07T06:20:23.587Z,19.40
2022-10-07T06:22:57.248Z,19.70
2022-10-07T06:25:27.310Z,20.10
2022-10-07T06:27:58.371Z,20.40
2022-10-07T06:30:29.495Z,20.70
2022-10-07T06:33:00.022Z,21.00
2022-10-07T06:35:29.145Z,21.20
2022-10-07T06:37:59.854Z,21.40
2022-10-07T06:40:28.236Z,21.70
2022-10-07T06:42:56.604Z,21.90
2022-10-07T06:45:37.160Z,22.20
2022-10-07T06:48:05.704Z,22.40
2022-10-07T06:50:34.197Z,22.70
2022-10-07T06:53:04.224Z,22.90
2022-10-07T06:55:37.603Z,23.20
2022-10-07T06:58:11.431Z,23.50
2022-10-07T07:00:41.625Z,23.70
2022-10-07T07:03:10.504Z,24.00
2022-10-07T07:05:44.437Z,24.20
2022-10-07T07:08:19.045Z,24.40
2022-10-07T07:10:47.932Z,24.70
2022-10-07T07:13:18.235Z,24.90
2022-10-07T07:15:56.024Z,25.20
2022-10-07T07:18:25.163Z,25.50
2022-10-07T07:20:54.998Z,25.60
2022-10-07T07:23:26.278Z,25.70
2022-10-07T07:25:54.617Z,25.80
2022-10-07T07:28:23.226Z,26.00
2022-10-07T07:30:51.700Z,26.20
2022-10-07T07:33:20.141Z,26.50
2022-10-07T07:35:49.089Z,26.70
2022-10-07T07:38:21.062Z,26.70
2022-10-07T07:40:53.614Z,27.00
2022-10-07T07:43:22.034Z,27.30
2022-10-07T07:45:51.020Z,27.50
2022-10-07T07:48:19.665Z,27.90
2022-10-07T07:50:47.996Z,28.00
2022-10-07T07:53:16.374Z,28.30
2022-10-07T07:55:55.225Z,28.40
2022-10-07T07:58:25.363Z,28.40
2022-10-07T08:01:01.405Z,28.40
2022-10-07T08:03:31.134Z,28.40
2022-10-07T08:06:01.942Z,28.30
2022-10-07T08:08:31.710Z,28.40
2022-10-07T08:11:08.113Z,28.60
2022-10-07T08:13:39.346Z,28.80
2022-10-07T08:16:08.368Z,28.90
2022-10-07T08:18:37.002Z,29.10
2022-10-07T08:21:07.732Z,29.20
2022-10-07T08:23:36.750Z,29.20
2022-10-07T08:26:07.567Z,29.30
2022-10-07T08:28:37.912Z,29.40
2022-10-07T08:31:08.334Z,29.40
2022-10-07T08:33:39.617Z,29.20
2022-10-07T08:36:09.922Z,29.20
2022-10-07T08:38:40.544Z,29.30
2022-10-07T08:41:26.001Z,29.40
2022-10-07T08:43:54.473Z,29.50
2022-10-07T08:46:27.996Z,29.60
2022-10-07T08:49:01.382Z,29.70
2022-10-07T08:51:34.303Z,29.60
2022-10-07T08:54:02.717Z,29.80
2022-10-07T08:56:34.678Z,30.00
2022-10-07T08:59:12.466Z,30.10
2022-10-07T09:01:56.346Z,30.30
2022-10-07T09:04:35.022Z,30.40
2022-10-07T09:07:06.943Z,30.50
2022-10-07T09:09:37.532Z,30.60
2022-10-07T09:12:12.303Z,30.70
2022-10-07T09:14:43.919Z,30.90
2022-10-07T09:17:16.823Z,31.00
2022-10-07T09:19:49.180Z,31.10
2022-10-07T09:22:21.524Z,31.10
2022-10-07T09:25:00.002Z,31.00
2022-10-07T09:27:29.805Z,31.10
2022-10-07T09:29:58.105Z,31.20
2022-10-07T09:32:26.433Z,31.30
2022-10-07T09:34:54.708Z,31.50
2022-10-07T09:37:26.201Z,31.60
2022-10-07T09:39:57.401Z,31.70
2022-10-07T09:42:35.854Z,31.70
2022-10-07T09:45:18.929Z,32.00
2022-10-07T09:47:53.665Z,32.00
2022-10-07T09:50:36.567Z,32.00
2022-10-07T09:53:06.243Z,31.90
2022-10-07T09:55:41.026Z,31.70
2022-10-07T09:58:19.633Z,31.60
2022-10-07T10:00:50.016Z,31.50
2022-10-07T10:03:19.493Z,31.40
2022-10-07T10:05:57.856Z,31.30
2022-10-07T10:08:29.861Z,31.30
2022-10-07T10:10:59.912Z,31.30
2022-10-07T10:13:34.755Z,31.30
2022-10-07T10:16:04.311Z,31.30
2022-10-07T10:18:36.591Z,31.30
2022-10-07T10:21:25.377Z,31.40
2022-10-07T10:23:56.376Z,31.50
2022-10-07T10:26:50.616Z,31.40
2022-10-07T10:29:38.829Z,31.50
2022-10-07T10:32:45.071Z,31.50
2022-10-07T10:35:19.566Z,31.50
2022-10-07T10:37:59.567Z,31.60
2022-10-07T10:40:33.965Z,31.50
2022-10-07T10:43:22.054Z,31.50
2022-10-07T10:46:07.058Z,31.40
2022-10-07T10:48:40.873Z,31.50
2022-10-07T10:51:24.236Z,31.40
2022-10-07T10:54:03.035Z,31.30
2022-10-07T10:56:39.410Z,31.10
2022-10-07T10:59:21.237Z,31.00
2022-10-07T11:01:58.045Z,30.80
2022-10-07T11:04:43.640Z,30.70
2022-10-07T11:07:21.438Z,30.80
2022-10-07T11:09:53.264Z,30.70
2022-10-07T11:12:26.514Z,30.70
2022-10-07T11:15:02.190Z,30.70
2022-10-07T11:17:37.772Z,30.70
2022-10-07T11:20:17.667Z,30.70
2022-10-07T11:22:52.665Z,30.70
2022-10-07T11:25:29.606Z,30.60
2022-10-07T11:28:08.618Z,30.60
2022-10-07T11:30:44.155Z,30.60
2022-10-07T11:33:20.329Z,30.50
2022-10-07T11:35:52.909Z,30.50
2022-10-07T11:38:26.146Z,30.40
2022-10-07T11:40:57.173Z,30.40
2022-10-07T11:43:30.194Z,30.20
2022-10-07T11:46:05.824Z,30.10
2022-10-07T11:48:44.195Z,30.00
2022-10-07T11:51:22.525Z,29.90
2022-10-07T11:53:54.374Z,29.90
2022-10-07T11:56:25.313Z,29.80
2022-10-07T11:59:02.454Z,29.90
2022-10-07T12:01:48.900Z,29.90
2022-10-07T12:04:25.697Z,30.00
2022-10-07T12:07:31.023Z,30.10
2022-10-07T12:10:23.325Z,30.30
2022-10-07T12:12:57.164Z,30.50
2022-10-07T12:15:32.951Z,30.50
2022-10-07T12:18:27.809Z,30.70
2022-10-07T12:21:07.094Z,30.90
2022-10-07T12:23:46.134Z,31.10
2022-10-07T12:26:47.504Z,31.20
2022-10-07T12:29:51.295Z,31.30
2022-10-07T12:32:42.767Z,31.40
2022-10-07T12:35:53.106Z,31.60
2022-10-07T12:38:26.894Z,31.80
2022-10-07T12:41:24.875Z,31.80
2022-10-07T12:44:04.616Z,32.00
2022-10-07T12:46:39.486Z,31.90
2022-10-07T12:49:15.535Z,31.90
2022-10-07T12:51:46.016Z,31.90
2022-10-07T12:54:20.157Z,31.70
2022-10-07T12:56:50.276Z,31.60
2022-10-07T12:59:50.380Z,31.50
2022-10-07T13:02:54.870Z,31.50
2022-10-07T13:06:07.843Z,31.50
2022-10-07T13:09:24.205Z,31.60
2022-10-07T13:12:18.443Z,31.60
2022-10-07T13:15:01.818Z,31.70
2022-10-07T13:17:42.494Z,31.70
2022-10-07T13:20:28.674Z,31.70
2022-10-07T13:22:57.625Z,31.50
2022-10-07T13:25:25.935Z,31.30
2022-10-07T13:27:59.120Z,31.10
2022-10-07T13:30:36.947Z,31.00
2022-10-07T13:33:30.591Z,30.90
2022-10-07T13:36:13.964Z,30.90
2022-10-07T13:38:42.280Z,30.80
2022-10-07T13:41:19.007Z,30.80
2022-10-07T13:43:52.652Z,30.90
2022-10-07T13:46:23.845Z,30.80
2022-10-07T13:48:56.393Z,30.80
2022-10-07T13:51:30.283Z,30.70
2022-10-07T13:54:00.626Z,30.70
2022-10-07T13:56:33.745Z,30.70
2022-10-07T13:59:06.784Z,30.60
2022-10-07T14:01:40.813Z,30.60
2022-10-07T14:04:12.677Z,30.50
2022-10-07T14:06:52.395Z,30.40
2022-10-07T14:09:34.317Z,30.40
2022-10-07T14:12:05.421Z,30.30
2022-10-07T14:14:38.556Z,30.20
2022-10-07T14:17:16.319Z,30.10
2022-10-07T14:19:44.937Z,30.00
2022-10-07T14:22:19.703Z,30.00
2022-10-07T14:24:56.515Z,30.00
2022-10-07T14:27:56.477Z,30.10
2022-10-07T14:30:56.347Z,30.00
2022-10-07T14:34:14.075Z,29.90
2022-10-07T14:37:03.815Z,29.70
2022-10-07T14:39:35.428Z,29.60
2022-10-07T14:42:04.542Z,29.30
2022-10-07T14:44:33.417Z,29.20
2022-10-07T14:47:10.253Z,28.90
2022-10-07T14:49:38.567Z,28.80
2022-10-07T14:52:07.015Z,28.60
2022-10-07T14:54:35.952Z,28.50
2022-10-07T14:57:04.323Z,28.50
2022-10-07T14:59:32.622Z,28.60
2022-10-07T15:02:01.026Z,28.80
2022-10-07T15:04:30.857Z,28.80
2022-10-07T15:06:59.374Z,28.70
2022-10-07T15:09:27.674Z,28.40
2022-10-07T15:11:56.204Z,28.10
2022-10-07T15:14:24.734Z,27.70
2022-10-07T15:16:52.952Z,27.20
2022-10-07T15:19:21.190Z,26.80
2022-10-07T15:21:50.760Z,26.30
2022-10-07T15:24:19.725Z,25.90
2022-10-07T15:26:48.066Z,25.50
2022-10-07T15:29:16.722Z,25.10
2022-10-07T15:31:44.985Z,24.70
2022-10-07T15:34:14.131Z,24.40
2022-10-07T15:36:43.290Z,24.10
2022-10-07T15:39:13.004Z,23.80
2022-10-07T15:41:42.727Z,23.50
2022-10-07T15:44:16.297Z,23.20
2022-10-07T15:46:45.945Z,23.00
2022-10-07T15:49:14.895Z,22.80
2022-10-07T15:51:43.164Z,22.60
2022-10-07T15:54:12.724Z,22.30
2022-10-07T15:56:41.617Z,22.20
2022-10-07T15:59:10.375Z,22.00
2022-10-07T16:01:38.755Z,21.90
2022-10-07T16:04:11.725Z,21.70
2022-10-07T16:06:40.477Z,21.60
2022-10-07T16:09:09.079Z,21.40
2022-10-07T16:11:38.670Z,21.30
2022-10-07T16:14:06.962Z,21.10
2022-10-07T16:16:35.298Z,20.90
2022-10-07T16:19:04.801Z,20.80
2022-10-07T16:21:34.604Z,20.60
2022-10-07T16:24:05.645Z,20.50
2022-10-07T16:26:35.983Z,20.40
2022-10-07T16:29:25.024Z,20.20
2022-10-07T16:31:58.156Z,20.10
2022-10-07T16:34:28.625Z,19.90
2022-10-07T16:36:57.905Z,19.80
2022-10-07T16:39:26.444Z,19.70
2022-10-07T16:41:56.469Z,19.60
2022-10-07T16:44:26.075Z,19.40
2022-10-07T16:46:57.058Z,19.40
2022-10-07T16:49:29.270Z,19.20
2022-10-07T16:51:58.566Z,19.10
2022-10-07T16:54:29.951Z,19.00
2022-10-07T16:56:58.696Z,18.90
2022-10-07T16:59:28.337Z,18.80
2022-10-07T17:02:00.312Z,18.70
2022-10-07T17:04:28.784Z,18.60
2022-10-07T17:06:57.912Z,18.50
2022-10-07T17:09:26.233Z,18.40
2022-10-07T17:11:54.480Z,18.30
2022-10-07T17:14:23.865Z,18.20
2022-10-07T17:16:57.702Z,18.00
2022-10-07T17:19:27.945Z,18.00
2022-10-07T17:21:58.696Z,17.80
2022-10-07T17:24:27.593Z,17.70
2022-10-07T17:26:56.308Z,17.70
2022-10-07T17:29:26.543Z,17.60
2022-10-07T17:31:56.954Z,17.50
2022-10-07T17:34:25.267Z,17.40
2022-10-07T17:36:54.264Z,17.30
2022-10-07T17:39:22.967Z,17.30
2022-10-07T17:41:51.205Z,17.20
2022-10-07T17:44:21.507Z,17.10
2022-10-07T17:46:50.383Z,17.10
2022-10-07T17:49:20.933Z,17.00
2022-10-07T17:51:49.290Z,17.00
2022-10-07T17:54:17.667Z,16.90
2022-10-07T17:56:47.941Z,16.90
2022-10-07T17:59:16.749Z,16.80
2022-10-07T18:01:45.618Z,16.80
2022-10-07T18:04:21.013Z,16.70
2022-10-07T18:06:53.523Z,16.70
2022-10-07T18:09:22.882Z,16.60
2022-10-07T18:12:08.707Z,16.60
2022-10-07T18:14:54.733Z,16.50
2022-10-07T18:17:24.728Z,16.40
2022-10-07T18:19:53.369Z,16.40
2022-10-07T18:22:24.346Z,16.30
2022-10-07T18:24:57.135Z,16.30
2022-10-07T18:27:27.069Z,16.20
2022-10-07T18:29:55.878Z,16.20
2022-10-07T18:32:24.857Z,16.20
2022-10-07T18:34:53.097Z,16.10
2022-10-07T18:37:23.703Z,16.10
2022-10-07T18:39:52.269Z,16.10
2022-10-07T18:42:20.597Z,16.00
2022-10-07T18:44:50.282Z,16.00
2022-10-07T18:47:18.625Z,16.00
2022-10-07T18:49:46.982Z,15.90
2022-10-07T18:52:15.328Z,15.90
2022-10-07T18:54:44.934Z,15.90
2022-10-07T18:57:13.251Z,15.90
2022-10-07T18:59:41.734Z,15.80
2022-10-07T19:02:12.617Z,15.80
2022-10-07T19:04:41.026Z,15.80
2022-10-07T19:07:09.355Z,15.70
2022-10-07T19:09:37.795Z,15.60
2022-10-07T19:12:28.398Z,15.60
2022-10-07T19:14:55.779Z,15.60
2022-10-07T19:17:24.264Z,15.50
2022-10-07T19:19:52.656Z,15.40
2022-10-07T19:22:20.962Z,15.40
2022-10-07T19:25:06.682Z,15.40
2022-10-07T19:27:36.716Z,15.30
2022-10-07T19:30:05.844Z,15.30
2022-10-07T19:32:34.726Z,15.20
2022-10-07T19:35:03.123Z,15.20
2022-10-07T19:37:31.486Z,15.10
2022-10-07T19:39:59.816Z,15.10
2022-10-07T19:42:28.708Z,15.10
2022-10-07T19:44:58.297Z,15.00
2022-10-07T19:47:26.635Z,15.00
2022-10-07T19:49:54.826Z,15.00
2022-10-07T19:52:24.012Z,15.00
2022-10-07T19:54:52.392Z,14.90
2022-10-07T19:57:21.793Z,14.90
2022-10-07T19:59:50.161Z,14.80
2022-10-07T20:02:20.220Z,14.80
2022-10-07T20:04:48.612Z,14.80
2022-10-07T20:07:18.190Z,14.80
2022-10-07T20:09:46.549Z,14.70
2022-10-07T20:12:14.834Z,14.70
2022-10-07T20:14:43.966Z,14.60
2022-10-07T20:17:12.249Z,14.60
2022-10-07T20:19:42.205Z,14.60
2022-10-07T20:22:11.455Z,14.50
2022-10-07T20:24:39.953Z,14.50
2022-10-07T20:27:08.298Z,14.50
2022-10-07T20:29:56.573Z,14.50
2022-10-07T20:32:25.447Z,14.40
2022-10-07T20:34:55.574Z,14.40
2022-10-07T20:37:23.945Z,14.30
2022-10-07T20:40:09.525Z,14.30
2022-10-07T20:42:37.876Z,14.30
2022-10-07T20:45:06.796Z,14.20
2022-10-07T20:47:36.812Z,14.20
2022-10-07T20:50:07.157Z,14.20
2022-10-07T20:52:36.932Z,14.20
2022-10-07T20:55:06.914Z,14.10
2022-10-07T20:57:38.030Z,14.10
2022-10-07T21:00:09.421Z,14.10
2022-10-07T21:02:37.770Z,14.10
2022-10-07T21:05:08.121Z,14.10
2022-10-07T21:07:36.508Z,14.10
2022-10-07T21:10:05.190Z,14.10
2022-10-07T21:12:33.435Z,14.00
2022-10-07T21:15:03.404Z,14.00
2022-10-07T21:17:31.675Z,14.00
2022-10-07T21:19:59.933Z,14.00
2022-10-07T21:22:29.525Z,14.00
2022-10-07T21:24:58.749Z,13.90
2022-10-07T21:27:27.033Z,13.90
2022-10-07T21:29:55.883Z,13.80
2022-10-07T21:32:24.173Z,13.80
2022-10-07T21:34:53.642Z,13.80
2022-10-07T21:37:21.925Z,13.70
2022-10-07T21:39:51.599Z,13.70
2022-10-07T21:42:20.162Z,13.60
2022-10-07T21:44:48.475Z,13.60
2022-10-07T21:47:16.836Z,13.50
2022-10-07T21:49:45.264Z,13.50
2022-10-07T21:52:13.615Z,13.50
2022-10-07T21:54:41.822Z,13.40
2022-10-07T21:57:11.408Z,13.40
2022-10-07T21:59:39.703Z,13.30
2022-10-07T22:02:08.930Z,13.30
2022-10-07T22:04:37.265Z,13.20
2022-10-07T22:07:23.042Z,13.20
2022-10-07T22:09:51.305Z,13.10
2022-10-07T22:12:20.920Z,13.10
2022-10-07T22:14:49.174Z,13.10
2022-10-07T22:17:17.442Z,13.00
2022-10-07T22:19:45.714Z,13.00
2022-10-07T22:22:14.002Z,13.00
2022-10-07T22:24:42.321Z,12.90
2022-10-07T22:27:10.692Z,12.90
2022-10-07T22:29:40.276Z,12.90
2022-10-07T22:32:08.505Z,12.80
2022-10-07T22:34:54.085Z,12.80
2022-10-07T22:37:22.375Z,12.70
2022-10-07T22:39:50.685Z,12.70
2022-10-07T22:42:19.496Z,12.70
2022-10-07T22:44:49.167Z,12.60
2022-10-07T22:47:17.414Z,12.60
2022-10-07T22:49:45.694Z,12.50
2022-10-07T22:52:13.956Z,12.50
2022-10-07T22:54:42.205Z,12.50
2022-10-07T22:57:10.792Z,12.40
2022-10-07T22:59:39.005Z,12.40
2022-10-07T23:02:10.488Z,12.40
2022-10-07T23:04:38.894Z,12.30
2022-10-07T23:07:07.264Z,12.30
2022-10-07T23:09:35.545Z,12.30
2022-10-07T23:12:04.733Z,12.20
2022-10-07T23:14:33.124Z,12.20
2022-10-07T23:17:01.436Z,12.20
2022-10-07T23:19:31.128Z,12.20
2022-10-07T23:22:00.281Z,12.20
2022-10-07T23:24:29.065Z,12.20
2022-10-07T23:26:57.364Z,12.20
2022-10-07T23:29:26.637Z,12.20
2022-10-07T23:31:55.033Z,12.10
2022-10-07T23:34:23.574Z,12.10
2022-10-07T23:36:55.312Z,12.10
2022-10-07T23:39:23.942Z,12.10
2022-10-07T23:41:52.137Z,12.10
2022-10-07T23:44:23.057Z,12.10
2022-10-07T23:46:51.842Z,12.10
2022-10-07T23:49:20.274Z,12.10
2022-10-07T23:51:48.652Z,12.10
2022-10-07T23:54:18.447Z,12.10
2022-10-07T23:56:46.742Z,12.10
2022-10-07T23:59:15.089Z,12.10
